Terminal Aerodrome Forecast
Issued by NWS

Home | Current Version | Previous Version | Graphics & Text | Print | Product List | Glossary On
Versions: 1 2 3 4 5 6 7 8 9 10 11 12 13 14 15 16 17
082
FTUS43 KICT 211431 AAA
TAFHUT
TAF AMD
KHUT 211431Z 2115/2212 04019G26KT P6SM FEW040 BKN250
     FM212200 05017G22KT P6SM OVC040=

USA.gov is the U.S. government's official web portal to all federal, state and local government web resources and services.